createdAt,value
2018-05-25T00:00:09.648Z,17.44
2018-05-25T00:03:12.162Z,17.38
2018-05-25T00:06:14.711Z,17.38
2018-05-25T00:09:17.262Z,17.31
2018-05-25T00:12:19.701Z,17.32
2018-05-25T00:15:22.175Z,17.24
2018-05-25T00:18:24.656Z,17.17
2018-05-25T00:21:27.152Z,17.10
2018-05-25T00:24:29.678Z,17.06
2018-05-25T00:27:32.141Z,17.04
2018-05-25T00:30:34.610Z,17.01
2018-05-25T00:33:37.116Z,16.94
2018-05-25T00:36:39.570Z,16.92
2018-05-25T00:39:42.191Z,16.90
2018-05-25T00:42:44.681Z,16.89
2018-05-25T00:45:47.147Z,17.00
2018-05-25T00:48:49.590Z,17.05
2018-05-25T00:51:52.082Z,17.19
2018-05-25T00:55:06.307Z,17.20
2018-05-25T00:58:08.758Z,17.29
2018-05-25T01:01:11.266Z,17.44
2018-05-25T01:04:13.705Z,17.64
2018-05-25T01:07:16.248Z,17.58
2018-05-25T01:10:18.773Z,17.70
2018-05-25T01:13:21.334Z,17.56
2018-05-25T01:16:23.896Z,17.48
2018-05-25T01:19:26.339Z,17.41
2018-05-25T01:22:28.918Z,17.43
2018-05-25T01:25:31.429Z,17.45
2018-05-25T01:28:33.873Z,17.48
2018-05-25T01:31:36.352Z,17.31
2018-05-25T01:34:38.812Z,17.20
2018-05-25T01:37:41.263Z,17.16
2018-05-25T01:40:43.716Z,17.11
2018-05-25T01:43:46.207Z,17.09
2018-05-25T01:46:48.686Z,17.14
2018-05-25T01:49:51.162Z,17.13
2018-05-25T01:52:53.833Z,17.06
2018-05-25T01:55:56.296Z,17.02
2018-05-25T01:58:58.774Z,16.96
2018-05-25T02:02:01.244Z,16.98
2018-05-25T02:05:03.733Z,16.93
2018-05-25T02:08:06.232Z,16.91
2018-05-25T02:11:08.805Z,16.85
2018-05-25T02:14:11.237Z,16.79
2018-05-25T02:17:13.756Z,16.77
2018-05-25T02:20:16.248Z,16.69
2018-05-25T02:23:18.750Z,16.59
2018-05-25T02:26:21.237Z,16.54
2018-05-25T02:29:23.662Z,16.52
2018-05-25T02:32:26.141Z,16.55
2018-05-25T02:35:28.757Z,16.56
2018-05-25T02:38:31.217Z,16.58
2018-05-25T02:41:33.653Z,16.51
2018-05-25T02:44:36.273Z,16.49
2018-05-25T02:47:38.759Z,16.43
2018-05-25T02:50:41.200Z,16.37
2018-05-25T02:53:43.666Z,16.34
2018-05-25T02:56:46.193Z,16.29
2018-05-25T02:59:48.664Z,16.34
2018-05-25T03:02:51.129Z,16.32
2018-05-25T03:05:53.628Z,16.30
2018-05-25T03:08:56.184Z,16.24
2018-05-25T03:11:58.754Z,16.32
2018-05-25T03:15:01.236Z,16.42
2018-05-25T03:18:03.701Z,16.35
2018-05-25T03:21:06.210Z,16.44
2018-05-25T03:24:08.771Z,16.52
2018-05-25T03:27:11.238Z,16.46
2018-05-25T03:30:13.903Z,16.52
2018-05-25T03:33:16.402Z,16.59
2018-05-25T03:36:18.873Z,16.55
2018-05-25T03:39:21.343Z,16.62
2018-05-25T03:42:23.797Z,16.47
2018-05-25T03:45:26.223Z,16.56
2018-05-25T03:48:28.763Z,16.58
2018-05-25T03:51:31.270Z,16.87
2018-05-25T03:54:33.721Z,17.02
2018-05-25T03:57:36.278Z,16.94
2018-05-25T04:00:50.399Z,16.60
2018-05-25T04:03:53.038Z,16.57
2018-05-25T04:06:55.468Z,16.54
2018-05-25T04:09:57.931Z,16.44
2018-05-25T04:13:00.372Z,16.47
2018-05-25T04:16:02.894Z,16.46
2018-05-25T04:19:05.399Z,16.36
2018-05-25T04:22:07.845Z,16.35
2018-05-25T04:25:10.393Z,16.36
2018-05-25T04:28:12.873Z,16.40
2018-05-25T04:31:16.263Z,16.36
2018-05-25T04:34:18.771Z,16.37
2018-05-25T04:37:21.254Z,16.49
2018-05-25T04:40:23.758Z,16.48
2018-05-25T04:43:26.286Z,16.72
2018-05-25T04:46:28.759Z,16.65
2018-05-25T04:49:31.246Z,16.74
2018-05-25T04:52:33.759Z,16.84
2018-05-25T04:55:36.330Z,16.80
2018-05-25T04:58:38.804Z,16.91
2018-05-25T05:01:41.334Z,16.93
2018-05-25T05:04:43.815Z,16.88
2018-05-25T05:07:46.301Z,17.01
2018-05-25T05:10:48.794Z,16.85
2018-05-25T05:13:51.231Z,16.99
2018-05-25T05:16:53.799Z,17.14
2018-05-25T05:19:56.334Z,17.03
2018-05-25T05:22:58.891Z,16.94
2018-05-25T05:26:01.331Z,17.14
2018-05-25T05:29:03.776Z,17.53
2018-05-25T05:32:06.264Z,18.20
2018-05-25T05:35:08.684Z,19.18
2018-05-25T05:38:11.261Z,19.42
2018-05-25T05:41:13.755Z,20.31
2018-05-25T05:44:16.296Z,21.50
2018-05-25T05:47:18.795Z,22.21
2018-05-25T05:50:21.271Z,23.26
2018-05-25T05:53:23.709Z,23.91
2018-05-25T05:56:26.211Z,22.90
2018-05-25T05:59:28.769Z,22.61
2018-05-25T06:02:31.251Z,23.73
2018-05-25T06:05:33.841Z,24.20
2018-05-25T06:08:36.341Z,24.06
2018-05-25T06:11:38.774Z,23.73
2018-05-25T06:14:41.265Z,22.87
2018-05-25T06:17:43.775Z,23.15
2018-05-25T06:20:46.321Z,23.85
2018-05-25T06:23:48.866Z,24.15
2018-05-25T06:26:51.470Z,24.33
2018-05-25T06:29:53.931Z,24.16
2018-05-25T06:32:56.412Z,24.79
2018-05-25T06:35:58.935Z,23.88
2018-05-25T06:39:01.392Z,23.18
2018-05-25T06:42:03.844Z,23.76
2018-05-25T06:45:06.310Z,24.31
2018-05-25T06:48:08.877Z,24.86
2018-05-25T06:51:11.437Z,25.08
2018-05-25T06:54:13.892Z,24.72
2018-05-25T06:57:16.546Z,23.76
2018-05-25T07:00:19.031Z,23.75
2018-05-25T07:03:21.470Z,23.22
2018-05-25T07:06:23.968Z,23.60
2018-05-25T07:09:26.413Z,23.72
2018-05-25T07:12:28.885Z,23.49
2018-05-25T07:15:31.354Z,23.22
2018-05-25T07:18:33.907Z,22.68
2018-05-25T07:21:36.372Z,22.54
2018-05-25T07:24:38.951Z,22.79
2018-05-25T07:27:41.480Z,22.67
2018-05-25T07:30:43.953Z,22.51
2018-05-25T07:33:46.419Z,22.63
2018-05-25T07:36:48.991Z,22.47
2018-05-25T07:39:51.453Z,22.83
2018-05-25T07:42:53.935Z,22.65
2018-05-25T07:45:56.413Z,22.20
2018-05-25T07:48:58.997Z,22.16
2018-05-25T07:52:01.502Z,22.52
2018-05-25T07:55:03.997Z,22.70
2018-05-25T07:58:06.466Z,22.62
2018-05-25T08:01:08.988Z,22.36
2018-05-25T08:04:11.511Z,22.56
2018-05-25T08:07:13.986Z,22.38
2018-05-25T08:10:16.543Z,22.27
2018-05-25T08:13:19.023Z,22.25
2018-05-25T08:16:21.485Z,22.62
2018-05-25T08:19:24.013Z,22.68
2018-05-25T08:22:26.465Z,22.48
2018-05-25T08:25:29.043Z,22.76
2018-05-25T08:28:31.503Z,22.56
2018-05-25T08:31:34.083Z,22.60
2018-05-25T08:34:39.422Z,22.52
2018-05-25T08:37:41.952Z,22.64
2018-05-25T08:40:44.443Z,22.51
2018-05-25T08:43:46.917Z,22.65
2018-05-25T08:46:49.401Z,22.46
2018-05-25T08:49:51.901Z,22.25
2018-05-25T08:52:54.462Z,22.24
2018-05-25T08:55:57.028Z,22.16
2018-05-25T08:58:59.618Z,22.29
2018-05-25T09:02:02.143Z,22.28
2018-05-25T09:05:04.634Z,22.47
2018-05-25T09:08:07.122Z,22.37
2018-05-25T09:11:09.621Z,22.44
2018-05-25T09:14:12.091Z,22.52
2018-05-25T09:17:14.611Z,22.95
2018-05-25T09:20:17.077Z,23.35
2018-05-25T09:23:19.602Z,23.45
2018-05-25T09:26:22.208Z,23.42
2018-05-25T09:29:24.708Z,23.77
2018-05-25T09:32:27.382Z,23.83
2018-05-25T09:35:29.879Z,23.76
2018-05-25T09:38:32.418Z,23.81
2018-05-25T09:41:34.890Z,23.59
2018-05-25T09:44:37.392Z,23.53
2018-05-25T09:47:39.861Z,23.47
2018-05-25T09:50:42.334Z,23.79
2018-05-25T09:53:44.823Z,24.12
2018-05-25T09:56:58.969Z,24.39
2018-05-25T10:00:01.493Z,24.32
2018-05-25T10:03:03.975Z,24.21
2018-05-25T10:06:06.455Z,23.62
2018-05-25T10:09:09.002Z,23.68
2018-05-25T10:12:11.539Z,23.66
2018-05-25T10:15:14.030Z,23.70
2018-05-25T10:18:16.558Z,24.13
2018-05-25T10:21:19.034Z,24.21
2018-05-25T10:24:21.517Z,24.43
2018-05-25T10:27:23.983Z,24.51
2018-05-25T10:30:26.500Z,24.40
2018-05-25T10:33:29.075Z,24.38
2018-05-25T10:36:31.575Z,24.44
2018-05-25T10:39:34.078Z,24.76
2018-05-25T10:42:36.552Z,24.25
2018-05-25T10:45:39.101Z,24.20
2018-05-25T10:48:41.548Z,24.23
2018-05-25T10:51:44.023Z,23.94
2018-05-25T10:54:46.482Z,23.73
2018-05-25T10:57:48.979Z,23.67
2018-05-25T11:00:51.448Z,23.38
2018-05-25T11:03:53.943Z,23.49
2018-05-25T11:06:56.429Z,23.36
2018-05-25T11:09:58.957Z,23.24
2018-05-25T11:13:01.445Z,23.26
2018-05-25T11:16:03.950Z,23.51
2018-05-25T11:19:06.445Z,23.88
2018-05-25T11:22:08.922Z,23.89
2018-05-25T11:25:11.498Z,24.03
2018-05-25T11:28:13.943Z,24.19
2018-05-25T11:31:16.459Z,24.34
2018-05-25T11:34:18.903Z,24.60
2018-05-25T11:37:21.462Z,24.76
2018-05-25T11:40:24.040Z,24.35
2018-05-25T11:43:26.498Z,24.15
2018-05-25T11:46:29.012Z,24.27
2018-05-25T11:49:31.534Z,24.27
2018-05-25T11:52:34.040Z,24.21
2018-05-25T11:55:36.499Z,24.26
2018-05-25T11:58:39.015Z,24.20
2018-05-25T12:01:41.499Z,23.91
2018-05-25T12:04:43.994Z,23.99
2018-05-25T12:07:46.457Z,23.99
2018-05-25T12:10:48.969Z,23.85
2018-05-25T12:13:51.542Z,24.03
2018-05-25T12:16:54.017Z,24.14
2018-05-25T12:19:56.505Z,24.46
2018-05-25T12:22:59.009Z,24.26
2018-05-25T12:26:01.491Z,24.43
2018-05-25T12:29:03.950Z,24.14
2018-05-25T12:32:06.460Z,24.15
2018-05-25T12:35:09.025Z,24.27
2018-05-25T12:38:11.545Z,24.24
2018-05-25T12:41:13.996Z,24.15
2018-05-25T12:44:16.503Z,24.46
2018-05-25T12:47:19.002Z,24.46
2018-05-25T12:50:21.486Z,24.54
2018-05-25T12:53:23.949Z,24.34
2018-05-25T12:56:26.424Z,24.41
2018-05-25T12:59:28.860Z,24.24
2018-05-25T13:02:31.416Z,24.23
2018-05-25T13:05:33.996Z,23.99
2018-05-25T13:08:36.480Z,24.03
2018-05-25T13:11:38.982Z,23.72
2018-05-25T13:14:41.439Z,24.01
2018-05-25T13:17:43.906Z,24.26
2018-05-25T13:20:46.518Z,24.11
2018-05-25T13:23:49.060Z,24.23
2018-05-25T13:26:51.595Z,24.18
2018-05-25T13:29:54.053Z,24.38
2018-05-25T13:32:56.628Z,24.51
2018-05-25T13:35:59.079Z,24.64
2018-05-25T13:39:01.611Z,24.50
2018-05-25T13:42:04.177Z,24.36
2018-05-25T13:45:06.684Z,24.43
2018-05-25T13:48:09.306Z,24.42
2018-05-25T13:51:11.721Z,24.18
2018-05-25T13:54:14.235Z,24.33
2018-05-25T13:57:16.733Z,24.33
2018-05-25T14:00:19.229Z,24.51
2018-05-25T14:03:21.733Z,24.46
2018-05-25T14:06:24.246Z,24.43
2018-05-25T14:09:26.745Z,24.43
2018-05-25T14:12:29.252Z,24.35
2018-05-25T14:15:31.727Z,24.42
2018-05-25T14:18:34.196Z,24.47
2018-05-25T14:21:36.698Z,24.75
2018-05-25T14:24:39.221Z,24.87
2018-05-25T14:27:41.773Z,24.69
2018-05-25T14:30:44.291Z,24.78
2018-05-25T14:33:46.822Z,24.86
2018-05-25T14:36:49.415Z,24.72
2018-05-25T14:39:51.951Z,24.80
2018-05-25T14:42:54.436Z,25.32
2018-05-25T14:45:56.972Z,25.28
2018-05-25T14:48:59.537Z,25.29
2018-05-25T14:52:02.040Z,25.16
2018-05-25T14:55:04.500Z,25.07
2018-05-25T14:58:07.043Z,25.18
2018-05-25T15:01:09.568Z,25.32
2018-05-25T15:04:12.152Z,25.57
2018-05-25T15:07:14.595Z,25.57
2018-05-25T15:10:17.172Z,25.59
2018-05-25T15:13:19.772Z,25.58
2018-05-25T15:16:22.281Z,25.35
2018-05-25T15:19:24.796Z,25.47
2018-05-25T15:22:27.312Z,25.12
2018-05-25T15:25:29.781Z,25.14
2018-05-25T15:28:32.285Z,25.08
2018-05-25T15:31:34.786Z,25.28
2018-05-25T15:34:37.377Z,25.09
2018-05-25T15:37:39.916Z,25.01
2018-05-25T15:40:42.361Z,25.21
2018-05-25T15:43:44.855Z,25.25
2018-05-25T15:46:47.337Z,25.27
2018-05-25T15:49:49.823Z,25.39
2018-05-25T15:52:52.365Z,25.39
2018-05-25T15:55:54.831Z,25.49
2018-05-25T15:58:57.334Z,25.45
2018-05-25T16:01:59.807Z,25.05
2018-05-25T16:05:02.281Z,24.99
2018-05-25T16:08:04.783Z,24.99
2018-05-25T16:11:07.287Z,24.99
2018-05-25T16:14:09.848Z,24.88
2018-05-25T16:17:12.319Z,24.88
2018-05-25T16:20:14.890Z,24.65
2018-05-25T16:23:17.352Z,24.72
2018-05-25T16:26:19.860Z,24.75
2018-05-25T16:29:22.374Z,24.83
2018-05-25T16:32:24.877Z,24.86
2018-05-25T16:35:27.390Z,24.90
2018-05-25T16:38:29.973Z,24.88
2018-05-25T16:41:32.453Z,24.93
2018-05-25T16:44:34.970Z,24.94
2018-05-25T16:47:37.503Z,25.36
2018-05-25T16:50:39.962Z,25.80
2018-05-25T16:53:42.542Z,25.98
2018-05-25T16:56:44.994Z,26.26
2018-05-25T16:59:47.597Z,26.75
2018-05-25T17:02:50.105Z,27.52
2018-05-25T17:05:52.731Z,27.87
2018-05-25T17:08:55.292Z,28.50
2018-05-25T17:11:57.819Z,27.65
2018-05-25T17:15:00.292Z,26.42
2018-05-25T17:18:02.787Z,25.71
2018-05-25T17:21:05.322Z,25.12
2018-05-25T17:24:07.789Z,24.83
2018-05-25T17:27:10.409Z,24.61
2018-05-25T17:30:12.894Z,24.25
2018-05-25T17:33:15.390Z,24.14
2018-05-25T17:36:17.886Z,23.91
2018-05-25T17:39:20.393Z,23.69
2018-05-25T17:42:22.927Z,23.45
2018-05-25T17:45:25.482Z,23.47
2018-05-25T17:48:28.063Z,23.47
2018-05-25T17:51:30.698Z,23.25
2018-05-25T17:54:33.192Z,23.14
2018-05-25T17:57:35.703Z,23.07
2018-05-25T18:00:38.180Z,22.97
2018-05-25T18:03:40.679Z,22.92
2018-05-25T18:06:43.253Z,22.85
2018-05-25T18:09:45.818Z,22.73
2018-05-25T18:12:48.348Z,22.55
2018-05-25T18:15:50.808Z,22.53
2018-05-25T18:18:53.323Z,22.42
2018-05-25T18:21:55.811Z,22.44
2018-05-25T18:24:58.328Z,22.38
2018-05-25T18:28:00.814Z,22.38
2018-05-25T18:31:03.343Z,22.34
2018-05-25T18:34:05.818Z,22.23
2018-05-25T18:37:08.370Z,22.26
2018-05-25T18:40:10.930Z,22.31
2018-05-25T18:43:13.464Z,22.24
2018-05-25T18:46:15.965Z,22.19
2018-05-25T18:49:18.473Z,22.13
2018-05-25T18:52:21.031Z,22.20
2018-05-25T18:55:23.580Z,22.16
2018-05-25T18:58:26.045Z,22.07
2018-05-25T19:01:28.603Z,22.07
2018-05-25T19:04:31.199Z,22.05
2018-05-25T19:07:33.689Z,22.04
2018-05-25T19:10:36.305Z,21.95
2018-05-25T19:13:38.927Z,21.88
2018-05-25T19:16:41.480Z,21.79
2018-05-25T19:19:44.029Z,21.75
2018-05-25T19:22:46.478Z,21.67
2018-05-25T19:25:48.980Z,21.63
2018-05-25T19:28:51.511Z,21.58
2018-05-25T19:31:54.018Z,21.50
2018-05-25T19:34:56.548Z,21.50
2018-05-25T19:37:59.066Z,21.42
2018-05-25T19:41:01.558Z,21.39
2018-05-25T19:44:04.120Z,21.32
2018-05-25T19:47:06.606Z,21.25
2018-05-25T19:50:09.170Z,21.32
2018-05-25T19:53:11.765Z,21.29
2018-05-25T19:56:14.205Z,21.27
2018-05-25T19:59:16.709Z,21.23
2018-05-25T20:02:19.207Z,21.21
2018-05-25T20:05:21.720Z,21.20
2018-05-25T20:08:24.289Z,21.21
2018-05-25T20:11:26.791Z,21.23
2018-05-25T20:14:29.411Z,21.23
2018-05-25T20:17:31.963Z,21.20
2018-05-25T20:20:34.507Z,21.17
2018-05-25T20:23:37.054Z,21.13
2018-05-25T20:26:39.540Z,21.08
2018-05-25T20:29:42.066Z,21.08
2018-05-25T20:32:44.573Z,21.00
2018-05-25T20:35:47.191Z,20.94
2018-05-25T20:38:49.707Z,20.94
2018-05-25T20:41:52.228Z,20.94
2018-05-25T20:44:54.874Z,20.90
2018-05-25T20:47:57.431Z,20.93
2018-05-25T20:51:00.041Z,20.93
2018-05-25T20:54:02.575Z,20.91
2018-05-25T20:57:05.240Z,20.94
2018-05-25T21:00:07.695Z,20.91
2018-05-25T21:03:10.365Z,20.93
2018-05-25T21:06:12.887Z,20.92
2018-05-25T21:09:15.384Z,20.90
2018-05-25T21:12:17.948Z,20.86
2018-05-25T21:15:20.440Z,20.79
2018-05-25T21:18:22.982Z,20.68
2018-05-25T21:21:25.526Z,20.60
2018-05-25T21:24:28.096Z,20.51
2018-05-25T21:27:30.587Z,20.46
2018-05-25T21:30:33.104Z,20.44
2018-05-25T21:36:44.391Z,20.26
2018-05-25T21:39:46.900Z,20.37
2018-05-25T21:42:49.429Z,20.41
2018-05-25T21:45:51.910Z,20.46
2018-05-25T21:48:54.535Z,20.48
2018-05-25T21:51:57.125Z,20.40
2018-05-25T21:54:59.661Z,20.45
2018-05-25T21:58:02.136Z,20.40
2018-05-25T22:01:04.676Z,20.14
2018-05-25T22:04:07.257Z,19.96
2018-05-25T22:07:09.799Z,19.82
2018-05-25T22:10:12.372Z,19.63
2018-05-25T22:13:14.857Z,19.51
2018-05-25T22:16:17.398Z,19.43
2018-05-25T22:19:19.968Z,19.35
2018-05-25T22:22:22.428Z,19.38
2018-05-25T22:25:24.986Z,19.29
2018-05-25T22:28:27.647Z,19.28
2018-05-25T22:31:30.159Z,19.25
2018-05-25T22:34:32.708Z,19.37
2018-05-25T22:37:35.257Z,19.28
2018-05-25T22:40:37.794Z,19.14
2018-05-25T22:43:52.053Z,19.09
2018-05-25T22:47:06.277Z,19.08
2018-05-25T22:50:20.590Z,18.89
2018-05-25T22:53:28.032Z,18.87
2018-05-25T22:56:30.523Z,18.93
2018-05-25T22:59:33.022Z,18.96
2018-05-25T23:02:35.521Z,18.97
2018-05-25T23:05:37.986Z,18.85
2018-05-25T23:08:40.463Z,18.92
2018-05-25T23:11:42.975Z,18.93
2018-05-25T23:14:45.526Z,18.97
2018-05-25T23:17:48.058Z,18.84
2018-05-25T23:20:50.524Z,18.87
2018-05-25T23:23:53.067Z,18.85
2018-05-25T23:26:55.527Z,18.68
2018-05-25T23:29:58.012Z,18.63
2018-05-25T23:33:00.507Z,18.50
2018-05-25T23:36:03.017Z,18.54
2018-05-25T23:39:05.508Z,18.46
2018-05-25T23:42:07.988Z,18.41
2018-05-25T23:45:10.438Z,18.28
2018-05-25T23:48:12.917Z,18.37
2018-05-25T23:51:15.421Z,18.33
2018-05-25T23:54:17.920Z,18.39
2018-05-25T23:57:20.464Z,18.30
